Time;durP1;ratioP1;P1;durP2;ratioP2;P2;SDS_P1;SDS_P2;PMS_P1;PMS_P2;Temp;Humidity;BMP_temperature;BMP_pressure;BME280_temperature;BME280_humidity;BME280_pressure;Samples;Min_cycle;Max_cycle;Signal;HPM_P1;HPM_P2
2020/12/15 00:01:57;;;;;;;3.33;2.30;;;9.20;99.90;;;;;;4996335;28;20204;-78
2020/12/15 00:04:24;;;;;;;2.30;1.80;;;9.30;99.90;;;;;;4995489;28;20191;-75
2020/12/15 00:06:50;;;;;;;3.55;2.38;;;9.10;99.90;;;;;;4996842;28;20620;-75
2020/12/15 00:09:15;;;;;;;3.90;2.17;;;9.00;99.90;;;;;;4996743;28;20184;-77
2020/12/15 00:11:41;;;;;;;3.53;2.20;;;8.90;99.90;;;;;;4996263;28;20210;-77
2020/12/15 00:14:07;;;;;;;3.83;2.83;;;8.90;99.90;;;;;;4996228;28;20286;-77
2020/12/15 00:16:33;;;;;;;3.53;2.73;;;8.80;99.90;;;;;;4996566;28;20407;-77
2020/12/15 00:18:58;;;;;;;3.80;2.40;;;8.80;99.90;;;;;;4996557;28;20410;-77
2020/12/15 00:21:26;;;;;;;5.37;2.67;;;8.70;99.90;;;;;;4996183;28;20666;-75
2020/12/15 00:23:53;;;;;;;5.03;2.85;;;8.70;99.90;;;;;;4995775;28;20180;-77
2020/12/15 00:26:20;;;;;;;5.65;3.10;;;8.70;99.90;;;;;;4996398;28;20176;-74
2020/12/15 00:28:48;;;;;;;2.78;2.50;;;8.60;99.90;;;;;;4996418;28;20218;-76
2020/12/15 00:31:15;;;;;;;2.45;2.10;;;8.60;99.90;;;;;;4996163;28;20545;-76
2020/12/15 00:33:41;;;;;;;3.00;2.70;;;8.50;99.90;;;;;;4994301;28;20181;-76
2020/12/15 00:36:07;;;;;;;8.30;3.10;;;8.50;99.90;;;;;;4996126;28;20259;-75
2020/12/15 00:38:32;;;;;;;4.03;2.70;;;8.40;99.90;;;;;;4996016;28;20609;-76
2020/12/15 00:40:58;;;;;;;4.23;2.43;;;8.40;99.90;;;;;;4995863;28;20425;-75
2020/12/15 00:43:23;;;;;;;3.27;2.80;;;8.40;99.90;;;;;;4995500;28;20180;-76
2020/12/15 00:45:49;;;;;;;4.60;2.63;;;8.20;99.90;;;;;;4995686;28;20249;-76
2020/12/15 00:48:15;;;;;;;3.47;2.87;;;8.20;99.90;;;;;;4995662;28;20226;-76
2020/12/15 00:50:40;;;;;;;8.80;3.17;;;8.10;99.90;;;;;;4995469;28;20206;-75
2020/12/15 00:53:06;;;;;;;4.70;2.80;;;8.20;99.90;;;;;;4995334;28;20211;-75
2020/12/15 00:55:32;;;;;;;3.40;3.10;;;8.10;99.90;;;;;;4995560;28;20218;-76
2020/12/15 00:57:58;;;;;;;5.03;3.50;;;8.10;99.90;;;;;;4995309;28;20177;-75
2020/12/15 01:00:24;;;;;;;7.93;3.70;;;8.00;99.90;;;;;;4995460;28;20617;-75
2020/12/15 01:02:49;;;;;;;2.63;2.43;;;8.10;99.90;;;;;;4995144;28;20175;-75
2020/12/15 01:05:15;;;;;;;8.23;3.20;;;8.00;99.90;;;;;;4995343;28;20179;-75
2020/12/15 01:07:41;;;;;;;4.90;3.00;;;8.00;99.90;;;;;;4995320;28;20658;-75
2020/12/15 01:10:07;;;;;;;4.83;2.97;;;7.90;99.90;;;;;;4993896;28;20261;-75
2020/12/15 01:12:33;;;;;;;3.30;3.00;;;8.00;99.90;;;;;;4994863;28;20195;-75
2020/12/15 01:15:00;;;;;;;7.50;3.30;;;7.90;99.90;;;;;;4995098;28;20307;-75
2020/12/15 01:17:25;;;;;;;4.13;3.60;;;7.90;99.90;;;;;;4995161;28;20179;-76
2020/12/15 01:19:51;;;;;;;5.07;4.07;;;8.00;99.90;;;;;;4995287;28;20199;-75
2020/12/15 01:22:17;;;;;;;8.20;4.70;;;8.00;99.90;;;;;;4994722;28;20443;-75
2020/12/15 01:24:42;;;;;;;7.93;4.50;;;8.00;99.90;;;;;;4995052;28;20411;-75
2020/12/15 01:27:08;;;;;;;11.13;5.63;;;7.90;99.90;;;;;;4995162;28;20180;-76
2020/12/15 01:29:34;;;;;;;7.20;4.70;;;7.90;99.90;;;;;;4995040;28;20207;-75
2020/12/15 01:32:03;;;;;;;9.00;4.70;;;7.90;99.90;;;;;;4994464;28;20204;-75
2020/12/15 01:34:30;;;;;;;14.88;5.90;;;7.90;99.90;;;;;;4994947;28;20557;-75
2020/12/15 01:36:56;;;;;;;7.90;4.90;;;7.90;99.90;;;;;;4994881;28;20178;-75
2020/12/15 01:39:25;;;;;;;7.40;4.97;;;8.00;99.90;;;;;;4994785;28;20174;-75
2020/12/15 01:41:51;;;;;;;7.65;4.57;;;7.90;99.90;;;;;;4994668;28;20276;-75
2020/12/15 01:44:16;;;;;;;6.00;4.93;;;7.80;99.90;;;;;;4994666;28;20598;-76
2020/12/15 01:46:42;;;;;;;8.70;5.47;;;7.70;99.90;;;;;;4994772;28;20206;-75
2020/12/15 01:49:09;;;;;;;9.73;5.00;;;7.70;99.90;;;;;;4994605;28;20199;-75
2020/12/15 01:51:35;;;;;;;8.52;5.35;;;7.80;99.90;;;;;;4993191;28;20211;-75
2020/12/15 01:54:02;;;;;;;12.52;5.05;;;7.70;99.90;;;;;;4994284;28;20534;-76
2020/12/15 01:56:29;;;;;;;8.52;5.22;;;7.80;99.90;;;;;;4994401;28;20176;-76
2020/12/15 01:58:56;;;;;;;9.55;5.60;;;7.80;99.90;;;;;;4994450;28;20179;-75
2020/12/15 02:01:23;;;;;;;7.43;4.22;;;7.80;99.90;;;;;;4994448;28;20227;-75
2020/12/15 02:03:50;;;;;;;11.57;4.90;;;7.80;99.90;;;;;;4994158;28;20178;-75
2020/12/15 02:06:17;;;;;;;8.98;5.18;;;7.80;99.90;;;;;;4994326;28;20659;-75
2020/12/15 02:08:43;;;;;;;5.93;4.55;;;7.80;99.90;;;;;;4994432;28;20175;-75
2020/12/15 02:11:10;;;;;;;7.23;5.03;;;7.80;99.90;;;;;;4994360;28;20702;-75
2020/12/15 02:13:37;;;;;;;8.13;5.57;;;7.80;99.90;;;;;;4994078;28;20508;-76
2020/12/15 02:16:04;;;;;;;8.02;5.03;;;7.70;99.90;;;;;;4993274;28;20205;-75
2020/12/15 02:18:29;;;;;;;8.55;5.75;;;7.70;99.90;;;;;;4994066;28;20705;-76
2020/12/15 02:20:55;;;;;;;8.40;4.27;;;7.70;99.90;;;;;;4994170;28;20269;-75
2020/12/15 02:23:21;;;;;;;5.53;4.10;;;7.70;99.90;;;;;;4993813;28;20181;-75
2020/12/15 02:25:46;;;;;;;6.90;4.20;;;7.70;99.90;;;;;;4993965;28;20423;-75
2020/12/15 02:28:12;;;;;;;8.37;4.70;;;7.70;99.90;;;;;;4993821;28;20180;-76
2020/12/15 02:30:38;;;;;;;5.90;3.97;;;7.70;99.90;;;;;;4994037;28;20202;-76
2020/12/15 02:33:03;;;;;;;10.37;4.40;;;7.70;99.90;;;;;;4993760;28;20203;-76
2020/12/15 02:35:29;;;;;;;5.50;3.70;;;7.70;99.90;;;;;;4992963;28;20701;-76
2020/12/15 02:37:55;;;;;;;11.37;4.40;;;7.70;99.90;;;;;;4994181;28;20593;-76
2020/12/15 02:40:20;;;;;;;7.27;4.07;;;7.70;99.90;;;;;;4993893;28;20257;-75
2020/12/15 02:42:46;;;;;;;4.43;3.27;;;7.80;99.90;;;;;;4993568;28;20187;-77
2020/12/15 02:45:11;;;;;;;5.80;3.80;;;7.80;99.90;;;;;;4993958;28;20186;-76
2020/12/15 02:47:37;;;;;;;4.00;3.60;;;7.90;99.90;;;;;;4993921;28;20183;-76
2020/12/15 02:50:04;;;;;;;4.67;3.77;;;7.90;99.90;;;;;;4993765;28;20563;-77
2020/12/15 02:52:29;;;;;;;7.05;3.78;;;7.80;99.90;;;;;;4993412;28;20571;-76
2020/12/15 02:54:55;;;;;;;6.23;3.90;;;7.70;99.90;;;;;;4993664;28;20182;-76
2020/12/15 02:57:21;;;;;;;5.97;4.10;;;7.80;99.90;;;;;;4993828;28;20182;-76
2020/12/15 02:59:46;;;;;;;5.30;3.90;;;7.90;99.90;;;;;;4993695;28;20658;-76
2020/12/15 03:02:18;;;;;;;4.90;3.90;;;7.90;99.90;;;;;;4993371;28;20280;-76
2020/12/15 03:04:43;;;;;;;4.82;3.88;;;7.90;99.90;;;;;;4993605;28;20184;-76
2020/12/15 03:07:09;;;;;;;5.77;4.87;;;7.80;99.90;;;;;;4993535;28;20229;-76
2020/12/15 03:09:34;;;;;;;4.93;3.70;;;7.80;99.90;;;;;;4993678;28;20179;-76
2020/12/15 03:12:00;;;;;;;6.43;3.77;;;7.70;99.90;;;;;;4992009;28;20625;-76
2020/12/15 03:14:26;;;;;;;5.33;4.00;;;7.70;99.90;;;;;;4993652;28;20178;-77
2020/12/15 03:16:51;;;;;;;5.20;3.80;;;7.80;99.90;;;;;;4993507;28;20173;-77
2020/12/15 03:19:17;;;;;;;4.70;4.20;;;7.80;99.90;;;;;;4993422;28;20784;-76
2020/12/15 03:21:42;;;;;;;5.93;4.80;;;7.80;99.90;;;;;;4993635;28;20191;-77
2020/12/15 03:24:08;;;;;;;5.13;4.30;;;7.70;99.90;;;;;;4993255;28;20193;-76
2020/12/15 03:26:34;;;;;;;7.30;4.30;;;7.80;99.90;;;;;;4993502;28;20194;-76
2020/12/15 03:28:59;;;;;;;6.57;4.90;;;7.80;99.90;;;;;;4993415;28;20183;-76
2020/12/15 03:31:25;;;;;;;5.90;4.50;;;7.80;99.90;;;;;;4993261;28;20244;-76
2020/12/15 03:33:51;;;;;;;7.43;5.10;;;7.80;99.90;;;;;;4993291;28;20175;-76
2020/12/15 03:36:17;;;;;;;5.90;5.07;;;7.80;99.90;;;;;;4992317;28;20191;-76
2020/12/15 03:38:43;;;;;;;6.07;4.53;;;7.90;99.90;;;;;;4996027;28;20175;-76
2020/12/15 03:41:10;;;;;;;6.40;4.53;;;7.90;99.90;;;;;;4996866;28;20202;-77
2020/12/15 03:43:35;;;;;;;4.88;4.47;;;7.90;99.90;;;;;;4995327;28;20205;-76
2020/12/15 03:46:01;;;;;;;7.27;5.77;;;7.90;99.90;;;;;;4997116;28;20175;-76
2020/12/15 03:48:27;;;;;;;5.20;4.60;;;7.90;99.90;;;;;;4996951;28;20321;-76
2020/12/15 03:50:52;;;;;;;4.70;4.30;;;8.00;99.90;;;;;;4996885;28;20202;-76
2020/12/15 03:53:18;;;;;;;6.00;4.40;;;8.00;99.90;;;;;;4996551;28;20685;-77
2020/12/15 03:55:47;;;;;;;6.50;4.90;;;8.00;99.90;;;;;;4997005;28;20172;-76
2020/12/15 03:58:14;;;;;;;6.43;4.97;;;8.00;99.90;;;;;;4996808;28;20537;-76
2020/12/15 04:00:40;;;;;;;5.75;4.88;;;8.00;99.90;;;;;;4996651;28;20662;-76
2020/12/15 04:03:06;;;;;;;7.70;5.00;;;8.00;99.90;;;;;;4996316;28;20263;-76
2020/12/15 04:05:31;;;;;;;5.40;4.73;;;7.90;99.90;;;;;;4996408;28;20188;-76
2020/12/15 04:07:57;;;;;;;8.10;5.97;;;7.90;99.90;;;;;;4996585;28;20652;-76
2020/12/15 04:10:22;;;;;;;6.67;5.57;;;7.90;99.90;;;;;;4996502;28;20565;-77
2020/12/15 04:12:48;;;;;;;5.50;4.60;;;8.00;99.90;;;;;;4996145;28;20207;-76
2020/12/15 04:15:14;;;;;;;7.20;5.33;;;8.00;99.90;;;;;;4996571;28;20183;-76
2020/12/15 04:17:39;;;;;;;9.53;5.00;;;8.00;99.90;;;;;;4996482;28;20186;-76
2020/12/15 04:20:06;;;;;;;6.57;5.30;;;8.00;99.90;;;;;;4996407;28;20230;-76
2020/12/15 04:22:32;;;;;;;8.02;4.85;;;8.10;99.90;;;;;;4995899;28;20242;-76
2020/12/15 04:24:59;;;;;;;6.32;5.55;;;8.10;99.90;;;;;;4996307;28;20549;-76
2020/12/15 04:27:26;;;;;;;6.85;5.80;;;8.10;99.90;;;;;;4996058;28;20537;-76
2020/12/15 04:29:52;;;;;;;7.03;5.13;;;8.20;99.90;;;;;;4996068;28;20227;-76
2020/12/15 04:32:17;;;;;;;5.77;4.80;;;8.10;99.90;;;;;;4995675;28;20235;-77
2020/12/15 04:34:43;;;;;;;7.47;5.80;;;8.00;99.90;;;;;;4996158;28;20179;-76
2020/12/15 04:37:08;;;;;;;7.53;4.83;;;8.10;99.90;;;;;;4996246;28;20187;-76
2020/12/15 04:39:34;;;;;;;8.57;5.53;;;8.00;99.90;;;;;;4995965;28;20541;-77
2020/12/15 04:42:00;;;;;;;10.60;5.70;;;8.00;99.90;;;;;;4995679;28;20297;-77
2020/12/15 04:44:26;;;;;;;6.60;5.28;;;7.90;99.90;;;;;;4996354;28;20667;-76
2020/12/15 04:47:15;;;;;;;6.23;5.63;;;8.00;99.90;;;;;;4995928;28;20205;-76
2020/12/15 04:49:57;;;;;;;7.18;5.80;;;8.00;99.90;;;;;;4991359;28;20621;-76
2020/12/15 04:52:25;;;;;;;8.10;5.05;;;8.00;99.90;;;;;;4995314;28;20757;-76
2020/12/15 04:54:51;;;;;;;9.05;5.90;;;8.00;99.90;;;;;;4995811;28;20263;-76
2020/12/15 04:57:21;;;;;;;6.85;5.45;;;8.10;99.90;;;;;;4995644;28;20183;-76
2020/12/15 04:59:49;;;;;;;6.32;5.00;;;8.20;99.90;;;;;;4995394;28;20644;-77
2020/12/15 05:02:14;;;;;;;7.13;5.07;;;8.10;99.90;;;;;;4995182;28;20201;-76
2020/12/15 05:04:41;;;;;;;8.37;5.47;;;8.10;99.90;;;;;;4995516;28;20683;-76
2020/12/15 05:07:08;;;;;;;5.95;5.05;;;8.10;99.90;;;;;;4995402;28;20226;-76
2020/12/15 05:09:34;;;;;;;6.97;5.40;;;8.10;99.90;;;;;;4995401;28;20652;-76
2020/12/15 05:12:00;;;;;;;10.18;5.93;;;8.20;99.90;;;;;;4994817;28;20295;-76
2020/12/15 05:14:26;;;;;;;5.68;4.75;;;8.20;99.90;;;;;;4995428;28;20192;-76
2020/12/15 05:16:53;;;;;;;7.40;5.95;;;8.30;99.90;;;;;;4995344;28;20179;-75
2020/12/15 05:19:18;;;;;;;6.43;5.05;;;8.20;99.90;;;;;;4995263;28;20179;-76
2020/12/15 05:21:55;;;;;;;9.20;5.70;;;8.10;99.90;;;;;;4995030;28;20195;-77
2020/12/15 05:24:22;;;;;;;5.95;4.78;;;8.10;99.90;;;;;;4995145;28;20184;-76
2020/12/15 05:26:48;;;;;;;8.63;5.68;;;8.20;99.90;;;;;;4995942;28;20180;-76
2020/12/15 05:29:17;;;;;;;8.23;5.72;;;8.10;99.90;;;;;;4995177;28;20175;-76
2020/12/15 05:31:43;;;;;;;6.22;5.40;;;8.20;99.90;;;;;;4995259;28;20264;-76
2020/12/15 05:34:13;;;;;;;6.95;5.45;;;8.20;99.90;;;;;;4994757;28;20172;-76
2020/12/15 05:36:55;;;;;;;6.57;5.43;;;8.20;99.90;;;;;;4995060;28;20227;-76
2020/12/15 05:39:22;;;;;;;11.40;4.93;;;8.30;99.90;;;;;;4994966;28;20182;-76
2020/12/15 05:42:03;;;;;;;7.45;6.72;;;8.30;99.90;;;;;;4994641;28;20252;-77
2020/12/15 05:44:29;;;;;;;8.27;4.88;;;8.30;99.90;;;;;;4994764;28;20220;-76
2020/12/15 05:47:02;;;;;;;6.73;5.17;;;8.40;99.90;;;;;;4994799;28;20595;-76
2020/12/15 05:49:29;;;;;;;6.35;5.70;;;8.50;99.90;;;;;;4994515;28;20599;-76
2020/12/15 05:51:55;;;;;;;7.40;5.55;;;8.40;99.90;;;;;;4994158;28;20223;-76
2020/12/15 05:54:21;;;;;;;8.00;5.83;;;8.40;99.90;;;;;;4993316;28;20175;-77
2020/12/15 05:56:58;;;;;;;6.43;5.67;;;8.40;99.90;;;;;;4994616;28;20306;-76
2020/12/15 05:59:24;;;;;;;5.88;5.28;;;8.40;99.90;;;;;;4994470;28;20762;-76
2020/12/15 06:01:52;;;;;;;7.63;5.57;;;8.40;99.90;;;;;;4994353;28;20199;-76
2020/12/15 06:04:18;;;;;;;6.50;4.53;;;8.30;99.90;;;;;;4994180;28;20179;-77
2020/12/15 06:06:45;;;;;;;7.75;5.80;;;8.30;99.90;;;;;;4994354;28;20573;-76
2020/12/15 06:09:13;;;;;;;11.40;5.80;;;8.30;99.90;;;;;;4994416;28;20185;-77
2020/12/15 06:11:40;;;;;;;7.32;5.68;;;8.40;99.90;;;;;;4994196;28;20195;-77
2020/12/15 06:14:07;;;;;;;5.70;4.88;;;8.30;99.90;;;;;;4993962;28;20177;-77
2020/12/15 06:16:33;;;;;;;8.60;5.20;;;8.30;99.90;;;;;;4994402;28;20262;-77
2020/12/15 06:18:59;;;;;;;7.93;5.23;;;8.40;99.90;;;;;;4994236;28;20207;-77
2020/12/15 06:21:26;;;;;;;6.38;4.97;;;8.30;99.90;;;;;;4994339;28;20202;-77
2020/12/15 06:24:03;;;;;;;7.70;5.97;;;8.30;99.90;;;;;;4992528;28;20234;-77
2020/12/15 06:26:31;;;;;;;6.97;5.20;;;8.30;99.90;;;;;;4994102;28;20202;-77
2020/12/15 06:29:06;;;;;;;6.50;5.78;;;8.40;99.90;;;;;;4994164;28;20175;-76
2020/12/15 06:31:33;;;;;;;6.57;5.30;;;8.40;99.90;;;;;;4993988;28;20198;-76
2020/12/15 06:34:01;;;;;;;14.27;6.13;;;8.50;99.90;;;;;;4993622;28;20531;-77
2020/12/15 06:36:32;;;;;;;6.30;5.70;;;8.40;99.90;;;;;;4993864;28;20174;-77
2020/12/15 06:38:59;;;;;;;7.15;5.20;;;8.50;99.90;;;;;;4994100;28;20194;-77
2020/12/15 06:41:26;;;;;;;7.25;5.28;;;8.50;99.90;;;;;;4993922;28;20207;-77
2020/12/15 06:44:03;;;;;;;7.35;5.55;;;8.50;99.90;;;;;;4992347;28;20174;-77
2020/12/15 06:46:29;;;;;;;7.35;6.20;;;8.50;99.90;;;;;;4993743;28;20182;-77
2020/12/15 06:48:55;;;;;;;10.00;6.93;;;8.50;99.90;;;;;;4993639;28;20189;-77
2020/12/15 06:51:30;;;;;;;6.90;6.20;;;8.50;99.90;;;;;;4992571;28;20203;-77
2020/12/15 06:54:04;;;;;;;7.60;6.70;;;8.40;99.90;;;;;;4993574;28;20529;-77
2020/12/15 06:56:31;;;;;;;9.43;6.82;;;8.40;99.90;;;;;;4992568;28;20171;-77
2020/12/15 06:59:06;;;;;;;10.07;6.82;;;8.30;99.90;;;;;;4993684;28;20183;-77
2020/12/15 07:01:34;;;;;;;9.80;7.82;;;8.40;99.90;;;;;;4992379;28;20671;-77
2020/12/15 07:04:04;;;;;;;11.10;7.70;;;8.30;99.90;;;;;;4992109;28;20644;-77
2020/12/15 07:06:30;;;;;;;9.82;7.80;;;8.30;99.90;;;;;;4993468;28;20172;-77
2020/12/15 07:09:01;;;;;;;9.60;7.30;;;8.30;99.90;;;;;;4993536;28;20196;-77
2020/12/15 07:11:28;;;;;;;10.50;7.28;;;8.30;99.90;;;;;;4993392;28;20855;-77
2020/12/15 07:14:02;;;;;;;9.43;7.22;;;8.30;99.90;;;;;;4994821;28;20175;-77
2020/12/15 07:16:28;;;;;;;10.35;7.47;;;8.20;99.90;;;;;;4997443;28;20261;-77
2020/12/15 07:18:54;;;;;;;12.88;7.32;;;8.30;99.90;;;;;;4997306;28;20183;-77
2020/12/15 07:21:21;;;;;;;12.83;6.60;;;8.20;99.90;;;;;;4997345;28;20660;-77
2020/12/15 07:23:48;;;;;;;11.68;6.72;;;8.30;99.90;;;;;;4997025;28;20182;-77
2020/12/15 07:26:15;;;;;;;9.55;6.93;;;8.30;99.90;;;;;;4997414;28;20238;-77
2020/12/15 07:28:46;;;;;;;11.55;7.60;;;8.30;99.90;;;;;;4996097;28;20184;-77
2020/12/15 07:31:12;;;;;;;8.63;6.97;;;8.30;99.90;;;;;;4997233;28;20195;-77
2020/12/15 07:33:39;;;;;;;9.68;6.95;;;8.40;99.90;;;;;;4995592;28;20227;-77
2020/12/15 07:36:16;;;;;;;12.48;6.93;;;8.30;99.90;;;;;;4996013;28;20695;-77
2020/12/15 07:38:44;;;;;;;9.10;5.97;;;8.40;99.90;;;;;;4996021;28;20208;-78
2020/12/15 07:41:14;;;;;;;6.70;5.43;;;8.30;99.90;;;;;;4996995;28;20250;-77
2020/12/15 07:43:54;;;;;;;8.13;6.70;;;8.30;99.90;;;;;;4996799;28;20568;-77
2020/12/15 07:46:23;;;;;;;8.65;6.32;;;8.30;99.90;;;;;;4997087;28;20205;-77
2020/12/15 07:48:52;;;;;;;13.52;6.40;;;8.40;99.90;;;;;;4996859;28;20611;-77
2020/12/15 07:51:17;;;;;;;9.70;6.18;;;8.40;99.90;;;;;;5003406;28;20199;-77
2020/12/15 07:53:50;;;;;;;8.63;7.20;;;8.40;99.90;;;;;;5010173;28;20230;-76
2020/12/15 07:56:17;;;;;;;9.00;6.22;;;8.40;99.90;;;;;;4997505;28;20183;-77
2020/12/15 07:58:44;;;;;;;10.80;7.40;;;8.40;99.90;;;;;;4996756;28;20167;-76
2020/12/15 08:01:10;;;;;;;8.35;7.32;;;8.50;99.90;;;;;;4996459;28;20675;-76
2020/12/15 08:03:35;;;;;;;12.03;7.40;;;8.50;99.90;;;;;;4996223;28;20179;-77
2020/12/15 08:06:09;;;;;;;8.57;7.40;;;8.50;99.90;;;;;;4996719;28;20707;-76
2020/12/15 08:08:35;;;;;;;10.15;7.88;;;8.50;99.90;;;;;;4996536;28;20187;-76
2020/12/15 08:11:01;;;;;;;10.70;8.40;;;8.50;99.90;;;;;;4996444;28;20187;-76
2020/12/15 08:13:26;;;;;;;10.83;7.77;;;8.50;99.90;;;;;;4995925;28;20464;-76
2020/12/15 08:15:53;;;;;;;11.43;8.47;;;8.50;99.90;;;;;;4996504;28;20176;-76
2020/12/15 08:18:19;;;;;;;14.25;9.13;;;8.60;99.90;;;;;;4996475;28;20263;-76
2020/12/15 08:20:46;;;;;;;15.37;10.77;;;8.60;99.90;;;;;;4996242;28;20238;-76
2020/12/15 08:23:13;;;;;;;15.18;9.52;;;8.60;99.90;;;;;;4995907;28;20422;-76
2020/12/15 08:25:43;;;;;;;14.18;8.85;;;8.60;99.90;;;;;;4993944;28;20644;-77
2020/12/15 08:28:22;;;;;;;9.32;8.05;;;8.60;99.90;;;;;;4996530;28;20195;-77
2020/12/15 08:30:56;;;;;;;12.73;9.13;;;8.60;99.90;;;;;;4996019;28;20206;-77
2020/12/15 08:33:29;;;;;;;11.95;9.98;;;8.60;99.90;;;;;;4995849;28;20246;-80
2020/12/15 08:35:56;;;;;;;14.18;9.88;;;8.60;99.90;;;;;;4996009;28;20258;-78
2020/12/15 08:38:25;;;;;;;10.55;9.00;;;8.60;99.90;;;;;;4996083;28;20637;-77
2020/12/15 08:41:02;;;;;;;14.93;10.00;;;8.60;99.90;;;;;;4996113;28;20221;-77
2020/12/15 08:43:28;;;;;;;11.40;10.10;;;8.60;99.90;;;;;;4995592;28;20179;-77
2020/12/15 08:45:54;;;;;;;13.13;9.15;;;8.50;99.90;;;;;;4996133;28;20183;-77
2020/12/15 08:48:23;;;;;;;11.38;8.90;;;8.60;99.90;;;;;;4996065;28;20179;-77
2020/12/15 08:50:49;;;;;;;11.90;10.15;;;8.60;99.90;;;;;;4996026;28;20266;-77
2020/12/15 08:53:15;;;;;;;17.53;9.77;;;8.60;99.90;;;;;;4995508;28;20195;-77
2020/12/15 08:55:42;;;;;;;11.23;9.32;;;8.70;99.90;;;;;;4995614;28;20446;-78
2020/12/15 08:58:09;;;;;;;13.23;9.25;;;8.70;99.90;;;;;;4995648;28;20222;-77
2020/12/15 09:00:36;;;;;;;13.23;10.00;;;8.70;99.90;;;;;;4995490;28;20587;-77
2020/12/15 09:03:13;;;;;;;14.25;10.43;;;8.70;99.90;;;;;;4995477;28;20184;-77
2020/12/15 09:05:56;;;;;;;14.32;10.07;;;8.70;99.90;;;;;;4995409;28;20540;-77
2020/12/15 09:08:25;;;;;;;15.90;10.75;;;8.80;99.90;;;;;;5000716;28;20206;-77
2020/12/15 09:10:52;;;;;;;13.18;11.77;;;8.90;99.90;;;;;;5011983;28;20218;-77
2020/12/15 09:13:19;;;;;;;15.75;11.32;;;8.90;99.90;;;;;;5013328;28;20199;-77
2020/12/15 09:15:55;;;;;;;16.48;11.45;;;8.90;99.90;;;;;;5012352;28;20550;-78
2020/12/15 09:18:32;;;;;;;14.75;11.70;;;8.90;99.90;;;;;;5013606;28;20179;-77
2020/12/15 09:21:11;;;;;;;19.30;11.48;;;9.10;99.90;;;;;;5013077;28;20210;-77
2020/12/15 09:23:37;;;;;;;12.55;10.55;;;9.20;99.90;;;;;;5012417;28;20198;-77
2020/12/15 09:26:03;;;;;;;15.63;11.32;;;9.20;99.90;;;;;;5012727;28;20179;-76
2020/12/15 09:28:29;;;;;;;14.97;10.37;;;9.20;99.90;;;;;;5013366;28;20674;-76
2020/12/15 09:30:55;;;;;;;15.25;10.52;;;9.30;99.90;;;;;;5012211;28;20253;-76
2020/12/15 09:33:21;;;;;;;15.43;10.50;;;9.20;99.90;;;;;;5012958;28;20250;-76
2020/12/15 09:35:50;;;;;;;16.87;10.73;;;9.20;99.90;;;;;;5012537;28;20429;-77
2020/12/15 09:38:16;;;;;;;13.90;10.07;;;9.20;99.90;;;;;;5012044;28;20597;-77
2020/12/15 09:40:41;;;;;;;15.73;10.33;;;9.40;99.90;;;;;;5012399;28;20269;-76
2020/12/15 09:43:07;;;;;;;13.33;10.57;;;9.40;99.90;;;;;;5012822;28;20183;-77
2020/12/15 09:45:33;;;;;;;11.10;9.63;;;9.40;99.90;;;;;;5011848;28;20425;-76
2020/12/15 09:47:59;;;;;;;14.17;9.50;;;9.40;99.90;;;;;;5012876;28;20182;-77
2020/12/15 09:50:43;;;;;;;13.20;10.30;;;9.40;99.90;;;;;;5012358;28;20258;-76
2020/12/15 09:53:09;;;;;;;11.77;8.93;;;9.30;99.90;;;;;;5011963;28;20209;-77
2020/12/15 09:55:34;;;;;;;16.10;11.00;;;9.40;99.90;;;;;;5012469;28;20258;-77
2020/12/15 09:58:00;;;;;;;11.90;10.20;;;9.30;99.90;;;;;;5012700;28;20422;-76
2020/12/15 10:00:25;;;;;;;15.10;11.33;;;9.40;99.90;;;;;;5011598;28;20195;-77
2020/12/15 10:02:51;;;;;;;12.30;9.80;;;9.40;99.90;;;;;;5012516;28;20186;-76
2020/12/15 10:05:16;;;;;;;15.83;10.60;;;9.50;99.90;;;;;;5011887;28;20189;-77
2020/12/15 10:07:42;;;;;;;14.27;9.50;;;9.40;99.90;;;;;;5012019;28;20531;-76
2020/12/15 10:10:10;;;;;;;14.50;9.83;;;9.50;99.90;;;;;;5010741;28;20663;-77
2020/12/15 10:12:35;;;;;;;13.48;10.13;;;9.60;99.90;;;;;;5011652;28;20725;-77
2020/12/15 10:15:01;;;;;;;12.73;10.50;;;9.60;99.90;;;;;;5011149;28;20189;-77
2020/12/15 10:17:27;;;;;;;12.60;10.10;;;9.70;99.90;;;;;;5012051;28;20187;-77
2020/12/15 10:19:53;;;;;;;11.60;9.70;;;9.70;99.90;;;;;;5011808;28;20663;-77
2020/12/15 10:22:18;;;;;;;13.17;9.70;;;9.70;99.90;;;;;;5010839;28;20202;-77
2020/12/15 10:24:44;;;;;;;13.03;8.77;;;9.70;99.90;;;;;;5011602;28;20186;-77
2020/12/15 10:27:11;;;;;;;10.73;8.03;;;9.80;99.90;;;;;;5011693;28;20173;-77
2020/12/15 10:29:37;;;;;;;10.05;8.23;;;9.80;99.90;;;;;;5011144;28;20520;-78
2020/12/15 10:32:03;;;;;;;10.80;8.73;;;9.70;99.90;;;;;;5011063;28;20198;-77
2020/12/15 10:34:28;;;;;;;12.10;8.53;;;9.90;99.90;;;;;;5011736;28;20590;-78
2020/12/15 10:36:56;;;;;;;9.70;8.13;;;9.80;99.90;;;;;;5011418;28;20417;-77
2020/12/15 10:39:21;;;;;;;11.88;9.13;;;9.80;99.90;;;;;;5012228;28;20277;-77
2020/12/15 10:41:47;;;;;;;13.63;9.37;;;9.80;99.90;;;;;;5010984;28;20286;-76
2020/12/15 10:44:15;;;;;;;13.97;9.53;;;9.70;99.90;;;;;;5010869;28;20241;-76
2020/12/15 10:46:42;;;;;;;12.20;7.57;;;9.70;99.90;;;;;;5011452;28;20186;-76
2020/12/15 10:49:09;;;;;;;9.27;8.15;;;9.70;99.90;;;;;;5011652;28;20282;-76
2020/12/15 10:51:34;;;;;;;13.52;8.20;;;9.70;99.90;;;;;;5010959;28;20201;-75
2020/12/15 10:54:00;;;;;;;11.10;7.83;;;9.70;99.90;;;;;;5011092;28;20823;-75
2020/12/15 10:56:26;;;;;;;10.10;8.70;;;9.70;99.90;;;;;;4991753;28;20997;-75
2020/12/15 10:58:52;;;;;;;12.33;8.53;;;9.80;99.90;;;;;;4991820;28;20437;-76
2020/12/15 11:01:17;;;;;;;10.70;8.93;;;9.80;99.90;;;;;;4992099;28;20211;-76
2020/12/15 11:03:43;;;;;;;9.20;8.00;;;9.70;99.90;;;;;;4992196;28;20265;-76
2020/12/15 11:06:08;;;;;;;10.60;8.37;;;9.70;99.90;;;;;;4991268;28;20693;-75
2020/12/15 11:08:34;;;;;;;9.47;8.47;;;9.70;99.90;;;;;;4992221;28;20207;-75
2020/12/15 11:11:00;;;;;;;11.83;7.87;;;9.60;99.90;;;;;;4992742;28;20245;-75
2020/12/15 11:13:25;;;;;;;7.90;7.10;;;9.70;99.90;;;;;;4997906;28;20206;-77
2020/12/15 11:15:51;;;;;;;8.27;7.40;;;9.70;99.90;;;;;;5010959;28;20187;-75
2020/12/15 11:18:16;;;;;;;11.10;7.77;;;9.70;99.90;;;;;;5011788;28;20205;-75
2020/12/15 11:20:42;;;;;;;10.20;7.23;;;9.70;99.90;;;;;;5010493;28;20191;-75
2020/12/15 11:23:08;;;;;;;11.13;7.40;;;9.70;99.90;;;;;;5011600;28;20190;-75
2020/12/15 11:25:33;;;;;;;7.90;6.43;;;9.80;99.90;;;;;;5011625;28;20202;-76
2020/12/15 11:27:59;;;;;;;8.07;6.60;;;9.80;99.90;;;;;;5010900;28;20198;-76
2020/12/15 11:30:25;;;;;;;9.20;7.50;;;9.80;99.90;;;;;;5013127;28;20298;-75
2020/12/15 11:32:51;;;;;;;9.02;6.88;;;9.90;99.90;;;;;;5012778;28;20575;-75
2020/12/15 11:35:17;;;;;;;8.63;6.80;;;9.90;99.90;;;;;;5013046;28;20179;-75
2020/12/15 11:37:44;;;;;;;9.23;6.60;;;9.90;99.90;;;;;;5012982;28;20620;-75
2020/12/15 11:40:11;;;;;;;9.35;6.40;;;9.80;99.90;;;;;;5012773;28;20421;-77
2020/12/15 11:42:37;;;;;;;9.65;7.53;;;9.80;99.90;;;;;;5012508;28;20175;-75
2020/12/15 11:45:07;;;;;;;8.20;6.68;;;9.70;99.90;;;;;;5008764;28;20187;-75
2020/12/15 11:47:32;;;;;;;8.50;6.80;;;9.70;99.90;;;;;;5011073;28;20183;-75
2020/12/15 11:49:59;;;;;;;8.50;6.63;;;9.70;99.90;;;;;;5011432;28;20198;-76
2020/12/15 11:52:25;;;;;;;10.98;7.65;;;9.70;99.90;;;;;;5009877;28;20576;-76
2020/12/15 11:54:51;;;;;;;8.10;6.97;;;9.60;99.90;;;;;;5011322;28;20183;-75
2020/12/15 11:57:18;;;;;;;10.25;8.45;;;9.70;99.90;;;;;;5011232;28;20171;-76
2020/12/15 11:59:44;;;;;;;10.80;8.50;;;9.70;99.90;;;;;;5013038;28;20190;-76
2020/12/15 12:02:12;;;;;;;9.60;8.60;;;9.60;99.90;;;;;;5014504;28;20223;-76
2020/12/15 12:04:38;;;;;;;10.77;8.68;;;9.60;99.90;;;;;;5014586;28;20554;-76
2020/12/15 12:07:09;;;;;;;10.50;8.63;;;9.60;99.90;;;;;;5013992;28;20198;-76
2020/12/15 12:09:35;;;;;;;10.13;9.00;;;9.70;99.90;;;;;;5014473;28;20603;-76
2020/12/15 12:12:02;;;;;;;11.15;8.73;;;9.70;99.90;;;;;;5015690;28;20625;-76
2020/12/15 12:14:27;;;;;;;10.77;8.88;;;9.60;99.90;;;;;;5015955;28;20273;-76
2020/12/15 12:16:53;;;;;;;10.60;8.67;;;9.60;99.90;;;;;;5015921;28;20229;-76
2020/12/15 12:19:18;;;;;;;11.07;9.87;;;9.70;99.90;;;;;;5015774;28;20213;-76
2020/12/15 12:21:44;;;;;;;11.30;9.30;;;9.80;99.90;;;;;;5015785;28;20321;-77
2020/12/15 12:24:11;;;;;;;14.23;9.48;;;9.80;99.90;;;;;;5015590;28;20186;-75
2020/12/15 12:26:36;;;;;;;13.27;8.32;;;9.80;99.90;;;;;;5010430;28;20649;-78
2020/12/15 12:29:02;;;;;;;9.87;8.17;;;9.80;99.90;;;;;;5013706;28;20225;-75
2020/12/15 12:31:28;;;;;;;9.73;7.77;;;9.80;99.90;;;;;;5013860;28;20918;-76
2020/12/15 12:33:54;;;;;;;13.70;8.70;;;9.80;99.90;;;;;;5012983;28;20461;-75
2020/12/15 12:36:19;;;;;;;10.00;8.27;;;9.80;99.90;;;;;;5013906;28;20731;-77
2020/12/15 12:38:46;;;;;;;11.67;8.97;;;9.80;99.90;;;;;;5013419;28;20464;-76
2020/12/15 12:41:17;;;;;;;14.63;8.20;;;9.80;99.90;;;;;;5012941;28;20225;-77
2020/12/15 12:43:43;;;;;;;14.00;9.52;;;9.80;99.90;;;;;;5012883;28;20309;-76
2020/12/15 12:46:16;;;;;;;9.50;8.50;;;9.80;99.90;;;;;;5013351;28;20261;-78
2020/12/15 12:48:42;;;;;;;10.02;8.45;;;9.90;99.90;;;;;;5012886;28;20441;-76
2020/12/15 12:51:08;;;;;;;11.02;8.65;;;9.90;99.90;;;;;;5013283;28;20195;-77
2020/12/15 12:53:34;;;;;;;12.30;8.70;;;9.90;99.90;;;;;;5012767;28;20218;-77